createdAt,value
2023-01-31T00:00:52.231Z,54.91
2023-01-31T00:05:53.769Z,54.60
2023-01-31T00:10:59.135Z,55.08
2023-01-31T00:16:01.438Z,54.86
2023-01-31T00:21:17.267Z,54.83
2023-01-31T00:26:24.935Z,55.83
2023-01-31T00:31:28.241Z,55.86
2023-01-31T00:36:32.356Z,55.29
2023-01-31T00:41:36.517Z,54.92
2023-01-31T00:46:39.390Z,55.11
2023-01-31T00:51:41.006Z,55.00
2023-01-31T00:56:42.536Z,54.80
2023-01-31T01:01:44.065Z,54.27
2023-01-31T01:06:46.825Z,54.71
2023-01-31T01:11:48.809Z,54.84
2023-01-31T01:16:50.351Z,54.35
2023-01-31T01:21:54.204Z,54.30
2023-01-31T01:26:55.925Z,53.44
2023-01-31T01:31:59.850Z,53.85
2023-01-31T01:37:01.437Z,53.47
2023-01-31T01:42:03.052Z,53.02
2023-01-31T01:47:04.714Z,54.05
2023-01-31T01:52:11.417Z,53.85
2023-01-31T01:57:20.856Z,53.33
2023-01-31T02:02:26.299Z,53.71
2023-01-31T02:07:28.014Z,53.11
2023-01-31T02:12:32.033Z,52.68
2023-01-31T02:17:33.832Z,53.54
2023-01-31T02:23:09.764Z,53.47
2023-01-31T02:28:20.412Z,53.53
2023-01-31T02:33:36.902Z,54.44
2023-01-31T02:38:55.733Z,53.90
2023-01-31T02:44:14.454Z,54.09
2023-01-31T02:49:27.166Z,53.91
2023-01-31T02:54:31.500Z,54.98
2023-01-31T02:59:34.590Z,55.22
2023-01-31T03:04:36.631Z,54.73
2023-01-31T03:10:00.112Z,54.75
2023-01-31T03:15:26.591Z,54.21
2023-01-31T03:20:43.042Z,54.99
2023-01-31T03:25:46.477Z,55.26
2023-01-31T03:30:52.572Z,55.03
2023-01-31T03:36:14.138Z,55.08
2023-01-31T03:41:29.998Z,54.48
2023-01-31T03:46:38.453Z,54.02
2023-01-31T03:51:46.336Z,54.53
2023-01-31T03:56:55.133Z,54.94
2023-01-31T04:02:00.806Z,55.05
2023-01-31T04:07:03.996Z,54.84
2023-01-31T04:12:06.886Z,55.56
2023-01-31T04:17:08.432Z,56.18
2023-01-31T04:22:10.545Z,56.21
2023-01-31T04:27:12.365Z,56.40
2023-01-31T04:32:13.979Z,55.15
2023-01-31T04:37:15.551Z,55.59
2023-01-31T04:42:17.072Z,56.57
2023-01-31T04:47:18.823Z,56.47
2023-01-31T04:52:20.291Z,56.15
2023-01-31T04:57:21.784Z,55.73
2023-01-31T05:02:23.388Z,55.20
2023-01-31T05:07:24.910Z,55.27
2023-01-31T05:12:26.512Z,55.64
2023-01-31T05:17:28.013Z,55.15
2023-01-31T05:22:29.597Z,55.90
2023-01-31T05:27:31.504Z,55.48
2023-01-31T05:32:33.320Z,55.32
2023-01-31T05:37:34.860Z,55.84
2023-01-31T05:42:36.471Z,55.92
2023-01-31T05:47:38.047Z,55.65
2023-01-31T05:52:39.867Z,55.81
2023-01-31T05:57:41.351Z,56.23
2023-01-31T06:02:43.146Z,56.22
2023-01-31T06:07:44.794Z,56.55
2023-01-31T06:12:46.366Z,56.20
2023-01-31T06:17:48.074Z,56.56
2023-01-31T06:22:49.698Z,56.55
2023-01-31T06:27:51.311Z,56.43
2023-01-31T06:32:52.916Z,56.86
2023-01-31T06:37:58.105Z,56.84
2023-01-31T06:43:00.117Z,56.63
2023-01-31T06:48:02.067Z,57.09
2023-01-31T06:53:04.071Z,56.56
2023-01-31T06:58:05.722Z,56.62
2023-01-31T07:03:07.227Z,55.96
2023-01-31T07:08:08.795Z,56.13
2023-01-31T07:13:10.399Z,56.16
2023-01-31T07:18:12.301Z,56.32
2023-01-31T07:23:14.000Z,56.52
2023-01-31T07:28:15.659Z,56.91
2023-01-31T07:33:17.238Z,56.40
2023-01-31T07:38:18.765Z,56.97
2023-01-31T07:43:20.341Z,56.92
2023-01-31T07:48:21.963Z,56.35
2023-01-31T07:53:23.579Z,57.18
2023-01-31T07:58:25.252Z,56.73
2023-01-31T08:03:29.608Z,56.34
2023-01-31T08:08:31.284Z,57.00
2023-01-31T08:13:36.799Z,57.17
2023-01-31T08:18:38.909Z,56.50
2023-01-31T08:23:40.874Z,55.79
2023-01-31T08:28:43.904Z,55.91
2023-01-31T08:33:45.647Z,56.00
2023-01-31T08:38:47.942Z,55.65
2023-01-31T08:43:58.257Z,55.22
2023-01-31T08:49:05.940Z,55.26
2023-01-31T08:54:07.589Z,55.54
2023-01-31T08:59:10.898Z,55.78
2023-01-31T09:04:12.692Z,55.06
2023-01-31T09:09:14.390Z,54.83
2023-01-31T09:14:16.088Z,54.25
2023-01-31T09:19:17.731Z,53.00
2023-01-31T09:24:19.457Z,52.46
2023-01-31T09:29:21.147Z,52.31
2023-01-31T09:34:22.912Z,53.06
2023-01-31T09:39:25.262Z,51.49
2023-01-31T09:44:33.923Z,49.95
2023-01-31T09:49:50.043Z,47.98
2023-01-31T09:54:51.836Z,48.49
2023-01-31T10:00:06.315Z,46.96
2023-01-31T10:05:26.401Z,45.18
2023-01-31T10:10:39.024Z,44.42
2023-01-31T10:15:53.096Z,45.20
2023-01-31T10:21:27.559Z,44.64
2023-01-31T10:26:33.354Z,42.57
2023-01-31T10:32:00.968Z,42.22
2023-01-31T10:37:11.372Z,41.04
2023-01-31T10:42:32.550Z,41.46
2023-01-31T10:47:35.729Z,39.43
2023-01-31T10:53:06.389Z,34.52
2023-01-31T10:58:19.073Z,31.25
2023-01-31T11:03:20.990Z,34.14
2023-01-31T11:08:40.096Z,34.67
2023-01-31T11:13:54.474Z,35.78
2023-01-31T11:18:58.328Z,36.00
2023-01-31T11:24:06.430Z,33.75
2023-01-31T11:29:17.497Z,33.83
2023-01-31T11:34:25.630Z,34.89
2023-01-31T11:39:29.424Z,36.58
2023-01-31T11:44:31.208Z,39.47
2023-01-31T11:49:42.871Z,40.01
2023-01-31T11:54:50.130Z,41.59
2023-01-31T11:59:55.353Z,42.04
2023-01-31T12:04:57.238Z,42.55
2023-01-31T12:09:58.880Z,42.81
2023-01-31T12:15:04.825Z,42.64
2023-01-31T12:20:28.048Z,43.43
2023-01-31T12:25:54.676Z,44.02
2023-01-31T12:31:02.360Z,42.99
2023-01-31T12:36:21.246Z,39.53
2023-01-31T12:42:11.326Z,34.83
2023-01-31T12:47:24.849Z,29.15
2023-01-31T12:52:35.802Z,26.45
2023-01-31T12:58:16.169Z,26.94
2023-01-31T13:03:33.607Z,25.80
2023-01-31T13:08:41.279Z,27.66
2023-01-31T13:13:53.686Z,29.73
2023-01-31T13:19:02.211Z,29.81
2023-01-31T13:24:19.328Z,29.69
2023-01-31T13:29:27.919Z,30.56
2023-01-31T13:34:40.189Z,31.75
2023-01-31T13:39:46.172Z,32.70
2023-01-31T13:44:48.641Z,34.27
2023-01-31T13:50:15.470Z,36.02
2023-01-31T13:55:39.833Z,37.99
2023-01-31T14:00:48.697Z,39.30
2023-01-31T14:06:01.729Z,39.86
2023-01-31T14:11:30.004Z,40.16
2023-01-31T14:16:32.304Z,40.71
2023-01-31T14:21:37.140Z,41.42
2023-01-31T14:26:41.869Z,41.56
2023-01-31T14:31:45.453Z,41.17
2023-01-31T14:37:08.447Z,42.05
2023-01-31T14:42:22.244Z,42.63
2023-01-31T14:47:53.217Z,42.72
2023-01-31T14:53:29.851Z,43.52
2023-01-31T14:58:33.496Z,43.64
2023-01-31T15:03:39.175Z,43.78
2023-01-31T15:08:47.716Z,44.50
2023-01-31T15:13:52.964Z,44.36
2023-01-31T15:19:12.866Z,45.49
2023-01-31T15:24:26.116Z,45.61
2023-01-31T15:29:34.429Z,45.19
2023-01-31T15:34:50.131Z,45.71
2023-01-31T15:39:57.228Z,45.58
2023-01-31T15:45:17.235Z,44.98
2023-01-31T15:50:20.543Z,44.97
2023-01-31T15:55:22.701Z,45.19
2023-01-31T16:00:28.974Z,44.96
2023-01-31T16:05:36.801Z,45.38
2023-01-31T16:10:38.883Z,45.94
2023-01-31T16:15:41.333Z,45.79
2023-01-31T16:20:47.535Z,46.38
2023-01-31T16:25:55.618Z,46.61
2023-01-31T16:31:06.543Z,45.81
2023-01-31T16:36:17.373Z,46.55
2023-01-31T16:41:52.932Z,46.92
2023-01-31T16:46:55.112Z,46.83
2023-01-31T16:52:24.497Z,46.06
2023-01-31T16:57:29.363Z,46.76
2023-01-31T17:02:34.350Z,46.52
2023-01-31T17:07:37.217Z,47.09
2023-01-31T17:12:39.468Z,46.91
2023-01-31T17:17:41.384Z,46.31
2023-01-31T17:22:50.468Z,46.06
2023-01-31T17:27:55.331Z,46.23
2023-01-31T17:32:58.538Z,45.19
2023-01-31T17:38:00.884Z,45.75
2023-01-31T17:43:04.750Z,45.19
2023-01-31T17:48:07.764Z,44.93
2023-01-31T17:53:14.755Z,44.37
2023-01-31T17:58:18.025Z,45.35
2023-01-31T18:03:22.693Z,45.87
2023-01-31T18:08:24.442Z,46.23
2023-01-31T18:13:26.238Z,45.80
2023-01-31T18:18:28.165Z,45.61
2023-01-31T18:23:30.218Z,45.90
2023-01-31T18:28:32.193Z,45.49
2023-01-31T18:33:34.084Z,45.06
2023-01-31T18:38:35.973Z,45.14
2023-01-31T18:43:37.812Z,45.28
2023-01-31T18:48:41.153Z,44.65
2023-01-31T18:53:45.462Z,44.57
2023-01-31T18:58:48.813Z,45.26
2023-01-31T19:03:52.220Z,44.81
2023-01-31T19:08:56.252Z,44.29
2023-01-31T19:14:00.834Z,44.79
2023-01-31T19:19:02.959Z,44.75
2023-01-31T19:24:07.626Z,45.28
2023-01-31T19:29:13.710Z,45.20
2023-01-31T19:34:15.603Z,45.30
2023-01-31T19:39:17.484Z,45.84
2023-01-31T19:44:19.365Z,46.09
2023-01-31T19:49:22.019Z,46.37
2023-01-31T19:54:23.936Z,45.41
2023-01-31T19:59:25.663Z,46.31
2023-01-31T20:04:27.695Z,46.68
2023-01-31T20:09:29.429Z,46.40
2023-01-31T20:14:31.383Z,45.84
2023-01-31T20:19:33.400Z,47.05
2023-01-31T20:24:36.527Z,46.62
2023-01-31T20:29:38.440Z,45.87
2023-01-31T20:34:40.525Z,46.55
2023-01-31T20:39:43.358Z,47.56
2023-01-31T20:44:45.093Z,47.09
2023-01-31T20:49:46.838Z,47.23
2023-01-31T20:54:48.857Z,47.46
2023-01-31T20:59:50.776Z,46.56
2023-01-31T21:04:52.631Z,46.94
2023-01-31T21:09:54.570Z,47.36
2023-01-31T21:14:56.473Z,47.94
2023-01-31T21:19:58.836Z,47.83
2023-01-31T21:25:00.687Z,48.21
2023-01-31T21:30:02.914Z,48.85
2023-01-31T21:35:05.074Z,47.85
2023-01-31T21:40:08.660Z,48.86
2023-01-31T21:45:11.052Z,48.44
2023-01-31T21:50:13.024Z,49.23
2023-01-31T21:55:16.376Z,47.96
2023-01-31T22:00:19.270Z,48.76
2023-01-31T22:05:23.477Z,47.64
2023-01-31T22:10:25.444Z,47.84
2023-01-31T22:15:27.353Z,47.81
2023-01-31T22:20:29.355Z,47.51
2023-01-31T22:25:36.037Z,47.83
2023-01-31T22:30:38.050Z,48.13
2023-01-31T22:35:39.815Z,47.97
2023-01-31T22:40:45.919Z,48.25
2023-01-31T22:45:49.631Z,47.33
2023-01-31T22:50:56.769Z,47.81
2023-01-31T22:56:07.012Z,48.28
2023-01-31T23:01:30.399Z,48.40
2023-01-31T23:06:33.132Z,48.38
2023-01-31T23:11:35.063Z,48.06
2023-01-31T23:16:39.062Z,48.63
2023-01-31T23:21:42.069Z,49.08
2023-01-31T23:26:44.109Z,48.98
2023-01-31T23:31:46.258Z,48.40
2023-01-31T23:36:48.440Z,47.81
2023-01-31T23:41:50.314Z,47.62
2023-01-31T23:46:52.306Z,47.35
2023-01-31T23:51:54.385Z,47.20
2023-01-31T23:56:56.431Z,46.92
